Airfield :
LOGIN :

Register | Disclaimer

   EN    FR    IT 

 










Legend :    VFR   Marginal VFR   IFR   Intensive IFR   Very Intensive IFR
Visi :
Ceiling :
>= 8 km
>= 3000ft
5 to 8 km
1000 to 3000 ft
1500m to 5 km
500 to 1000 ft
800 to 1500m
200 to 500 ft
< 800m
< 200 ft
Symbols :   Thunderstorms  Fog  Heavy snow  Heavy precipitations  Wind > 20 kt
SIGMETs :     Misc.  Thunderstorms  Icing  Turbulence  Mountain Waves  Volcanic Ashes







- Airport Elevation : 308 ft
- IATA code : MHG


EDFM - Mannheim-City

CURRENT METAR :
  • 161950Z 14006KT CAVOK 04/00 Q1008

EXPIRED METARs :
  • 161920Z 16006KT CAVOK 05/00 Q1008
  • 161850Z 17006KT 140V200 CAVOK 05/00 Q1008
  • 161820Z 17007KT CAVOK 05/00 Q1008
  • 161750Z 15005KT 110V190 CAVOK 05/00 Q1009
  • 161720Z 15005KT CAVOK 05/00 Q1009

TAF TAF EDFM
Valid from the 16 at 18:00 until the 16 at 21:00 UTC


161700Z 1618/1621 17007KT CAVOK
No reported NOTAMs for that airfield.



MET'MAP, your aeronautical weather chart ! - Copyright ORBIFLY December 2007 - Disclaimer

ORBIFLY MET'MAP TEAM :

Programming & Development : Alexandra Zaïnal
Concept & Development : Baudouin d'Aumeries
Co-Development & Prog : Marc-Olivier Méhu
Technical & hardware support : Manuel Goepfert

Contact : metmap@orbifly.com




SOURCES & CREDITS :

   NOAA